createdAt,value
2019-03-22T00:00:32.471Z,0.00
2019-03-22T00:01:32.392Z,0.00
2019-03-22T00:02:32.453Z,0.00
2019-03-22T00:03:32.370Z,0.00
2019-03-22T00:04:32.469Z,0.00
2019-03-22T00:05:32.351Z,0.00
2019-03-22T00:06:32.412Z,0.00
2019-03-22T00:07:32.327Z,0.00
2019-03-22T00:08:32.399Z,0.00
2019-03-22T00:09:32.305Z,0.00
2019-03-22T00:10:32.406Z,0.00
2019-03-22T00:11:32.298Z,0.00
2019-03-22T00:12:32.317Z,0.00
2019-03-22T00:13:32.267Z,0.00
2019-03-22T00:14:32.332Z,0.00
2019-03-22T00:15:32.263Z,0.00
2019-03-22T00:16:32.275Z,0.00
2019-03-22T00:17:32.221Z,0.00
2019-03-22T00:18:32.257Z,0.00
2019-03-22T00:19:32.201Z,0.00
2019-03-22T00:20:32.270Z,0.00
2019-03-22T00:21:32.191Z,0.00
2019-03-22T00:22:32.182Z,0.00
2019-03-22T00:23:32.153Z,0.00
2019-03-22T00:24:32.195Z,0.00
2019-03-22T00:25:32.132Z,0.00
2019-03-22T00:26:32.626Z,0.00
2019-03-22T00:27:32.110Z,0.00
2019-03-22T00:28:32.121Z,0.00
2019-03-22T00:29:32.087Z,0.00
2019-03-22T00:30:34.183Z,0.00
2019-03-22T00:31:32.081Z,0.00
2019-03-22T00:32:39.046Z,0.00
2019-03-22T00:33:32.046Z,0.00
2019-03-22T00:34:32.060Z,0.00
2019-03-22T00:35:32.021Z,0.00
2019-03-22T00:36:34.049Z,0.00
2019-03-22T00:37:31.999Z,0.00
2019-03-22T00:38:33.008Z,0.00
2019-03-22T00:39:31.979Z,0.00
2019-03-22T00:40:32.020Z,0.00
2019-03-22T00:41:31.973Z,0.00
2019-03-22T00:42:32.018Z,0.00
2019-03-22T00:43:31.934Z,0.00
2019-03-22T00:44:32.027Z,0.00
2019-03-22T00:45:31.914Z,0.00
2019-03-22T00:46:31.976Z,0.00
2019-03-22T00:47:31.892Z,0.00
2019-03-22T00:48:31.950Z,0.00
2019-03-22T00:49:31.868Z,0.00
2019-03-22T00:50:31.965Z,0.00
2019-03-22T00:51:31.861Z,0.00
2019-03-22T00:52:31.875Z,0.00
2019-03-22T00:53:31.824Z,0.00
2019-03-22T00:54:31.890Z,0.00
2019-03-22T00:55:31.803Z,0.00
2019-03-22T00:56:31.835Z,0.00
2019-03-22T00:57:31.784Z,0.00
2019-03-22T00:58:31.814Z,0.00
2019-03-22T00:59:31.764Z,0.00
2019-03-22T01:00:31.829Z,0.00
2019-03-22T01:01:31.752Z,0.00
2019-03-22T01:02:31.741Z,0.00
2019-03-22T01:03:31.715Z,0.00
2019-03-22T01:04:31.754Z,0.00
2019-03-22T01:05:31.697Z,0.00
2019-03-22T01:06:31.807Z,0.00
2019-03-22T01:07:31.672Z,0.00
2019-03-22T01:08:31.678Z,0.00
2019-03-22T01:09:31.654Z,0.00
2019-03-22T01:10:31.695Z,0.00
2019-03-22T01:11:31.646Z,0.00
2019-03-22T01:12:31.706Z,0.00
2019-03-22T01:13:31.608Z,0.00
2019-03-22T01:14:31.616Z,0.00
2019-03-22T01:15:31.591Z,0.00
2019-03-22T01:16:36.075Z,0.00
2019-03-22T01:17:31.563Z,0.00
2019-03-22T01:18:32.567Z,0.00
2019-03-22T01:19:31.542Z,0.00
2019-03-22T01:20:31.555Z,0.00
2019-03-22T01:21:31.534Z,0.00
2019-03-22T01:22:33.617Z,0.00
2019-03-22T01:23:31.497Z,0.00
2019-03-22T01:24:32.507Z,0.00
2019-03-22T01:25:31.475Z,0.00
2019-03-22T01:26:31.542Z,0.00
2019-03-22T01:27:39.779Z,0.00
2019-03-22T01:28:32.444Z,0.00
2019-03-22T01:29:31.515Z,0.00
2019-03-22T01:30:31.420Z,0.00
2019-03-22T01:31:31.467Z,0.00
2019-03-22T01:32:31.400Z,0.00
2019-03-22T01:33:31.440Z,0.00
2019-03-22T01:34:31.391Z,0.00
2019-03-22T01:35:31.456Z,0.00
2019-03-22T01:36:31.383Z,0.00
2019-03-22T01:37:31.366Z,0.00
2019-03-22T01:38:31.332Z,0.00
2019-03-22T01:39:31.380Z,0.00
2019-03-22T01:40:31.311Z,0.00
2019-03-22T01:41:31.392Z,0.00
2019-03-22T01:42:31.303Z,0.00
2019-03-22T01:43:31.304Z,0.00
2019-03-22T01:44:31.268Z,0.00
2019-03-22T01:45:31.318Z,0.00
2019-03-22T01:46:31.245Z,0.00
2019-03-22T01:47:31.268Z,0.00
2019-03-22T01:48:31.224Z,0.00
2019-03-22T01:49:31.243Z,0.00
2019-03-22T01:50:31.208Z,0.00
2019-03-22T01:51:31.258Z,0.00
2019-03-22T01:52:31.212Z,0.00
2019-03-22T01:53:31.271Z,0.00
2019-03-22T01:54:31.159Z,0.00
2019-03-22T01:55:31.183Z,0.00
2019-03-22T01:56:31.136Z,0.00
2019-03-22T01:57:31.231Z,0.00
2019-03-22T01:58:31.116Z,0.00
2019-03-22T01:59:31.209Z,0.00
2019-03-22T02:00:31.091Z,0.00
2019-03-22T02:01:31.122Z,0.00
2019-03-22T02:02:31.084Z,0.00
2019-03-22T02:03:32.159Z,0.00
2019-03-22T02:04:31.049Z,0.00
2019-03-22T02:05:32.070Z,0.00
2019-03-22T02:06:31.028Z,0.00
2019-03-22T02:07:31.093Z,0.00
2019-03-22T02:08:31.008Z,0.00
2019-03-22T02:09:33.021Z,0.00
2019-03-22T02:10:30.985Z,0.00
2019-03-22T02:11:30.984Z,0.00
2019-03-22T02:12:30.980Z,0.00
2019-03-22T02:13:31.000Z,0.00
2019-03-22T02:14:30.940Z,0.00
2019-03-22T02:15:31.013Z,0.00
2019-03-22T02:16:30.917Z,0.00
2019-03-22T02:17:30.961Z,0.00
2019-03-22T02:18:30.896Z,0.00
2019-03-22T02:19:30.939Z,0.00
2019-03-22T02:20:30.878Z,0.00
2019-03-22T02:21:30.952Z,0.00
2019-03-22T02:22:30.867Z,0.00
2019-03-22T02:23:30.862Z,0.00
2019-03-22T02:24:30.835Z,0.00
2019-03-22T02:25:30.878Z,0.00
2019-03-22T02:26:30.813Z,0.00
2019-03-22T02:27:30.923Z,0.00
2019-03-22T02:28:30.787Z,0.00
2019-03-22T02:29:30.800Z,0.00
2019-03-22T02:30:30.765Z,0.00
2019-03-22T02:31:30.815Z,0.00
2019-03-22T02:32:30.765Z,0.00
2019-03-22T02:33:30.831Z,0.00
2019-03-22T02:34:30.721Z,0.00
2019-03-22T02:35:30.749Z,0.00
2019-03-22T02:36:30.708Z,0.00
2019-03-22T02:37:30.790Z,0.00
2019-03-22T02:38:30.679Z,0.00
2019-03-22T02:39:30.927Z,0.00
2019-03-22T02:40:30.662Z,0.00
2019-03-22T02:41:30.688Z,0.00
2019-03-22T02:42:30.656Z,0.00
2019-03-22T02:43:30.752Z,0.00
2019-03-22T02:44:30.636Z,0.00
2019-03-22T02:45:30.705Z,0.00
2019-03-22T02:46:30.593Z,0.00
2019-03-22T02:47:36.080Z,0.00
2019-03-22T02:48:30.569Z,0.00
2019-03-22T02:49:32.674Z,0.00
2019-03-22T02:50:30.549Z,0.00
2019-03-22T02:51:38.539Z,0.00
2019-03-22T02:52:30.527Z,0.00
2019-03-22T02:53:30.596Z,0.00
2019-03-22T02:54:30.505Z,0.00
2019-03-22T02:55:32.517Z,0.00
2019-03-22T02:56:30.482Z,0.00
2019-03-22T02:57:31.515Z,0.00
2019-03-22T02:58:30.475Z,0.00
2019-03-22T02:59:30.495Z,0.00
2019-03-22T03:00:30.447Z,0.00
2019-03-22T03:01:30.522Z,0.00
2019-03-22T03:02:30.421Z,0.00
2019-03-22T03:03:30.456Z,0.00
2019-03-22T03:04:30.398Z,0.00
2019-03-22T03:05:30.434Z,0.00
2019-03-22T03:06:30.372Z,0.00
2019-03-22T03:07:30.448Z,0.00
2019-03-22T03:08:30.445Z,0.00
2019-03-22T03:09:30.358Z,0.00
2019-03-22T03:10:30.336Z,0.00
2019-03-22T03:11:30.375Z,0.00
2019-03-22T03:12:30.329Z,0.00
2019-03-22T03:13:30.422Z,0.00
2019-03-22T03:14:30.289Z,0.00
2019-03-22T03:15:30.297Z,0.00
2019-03-22T03:16:30.268Z,0.00
2019-03-22T03:17:30.323Z,0.00
2019-03-22T03:18:30.258Z,0.00
2019-03-22T03:19:30.326Z,0.00
2019-03-22T03:20:30.220Z,0.00
2019-03-22T03:21:30.236Z,0.00
2019-03-22T03:22:30.199Z,0.00
2019-03-22T03:23:30.283Z,0.00
2019-03-22T03:24:30.176Z,0.00
2019-03-22T03:25:30.325Z,0.00
2019-03-22T03:26:30.155Z,0.00
2019-03-22T03:27:30.175Z,0.00
2019-03-22T03:28:36.731Z,0.00
2019-03-22T03:29:31.212Z,0.00
2019-03-22T03:30:30.115Z,0.00
2019-03-22T03:31:30.204Z,0.00
2019-03-22T03:32:30.091Z,0.00
2019-03-22T03:33:31.109Z,0.00
2019-03-22T03:34:30.088Z,0.00
2019-03-22T03:35:38.149Z,0.00
2019-03-22T03:36:30.051Z,0.00
2019-03-22T03:37:30.142Z,0.00
2019-03-22T03:38:30.039Z,0.00
2019-03-22T03:39:30.054Z,0.00
2019-03-22T03:40:30.007Z,0.00
2019-03-22T03:41:32.014Z,0.00
2019-03-22T03:42:29.980Z,0.00
2019-03-22T03:43:30.012Z,0.00
2019-03-22T03:44:29.961Z,0.00
2019-03-22T03:45:29.991Z,0.00
2019-03-22T03:46:29.940Z,0.00
2019-03-22T03:47:30.007Z,0.00
2019-03-22T03:48:29.935Z,0.00
2019-03-22T03:49:29.918Z,0.00
2019-03-22T03:50:29.892Z,0.00
2019-03-22T03:51:29.930Z,0.00
2019-03-22T03:52:29.874Z,0.00
2019-03-22T03:53:29.991Z,0.00
2019-03-22T03:54:29.849Z,0.00
2019-03-22T03:55:29.858Z,0.00
2019-03-22T03:56:29.830Z,0.00
2019-03-22T03:57:29.870Z,0.00
2019-03-22T03:58:29.823Z,0.00
2019-03-22T03:59:29.883Z,0.00
2019-03-22T04:00:29.787Z,0.00
2019-03-22T04:01:29.794Z,0.00
2019-03-22T04:02:29.769Z,0.00
2019-03-22T04:03:29.846Z,0.00
2019-03-22T04:04:29.747Z,0.00
2019-03-22T04:05:29.828Z,0.00
2019-03-22T04:06:29.721Z,0.00
2019-03-22T04:07:29.744Z,0.00
2019-03-22T04:08:29.715Z,0.00
2019-03-22T04:09:29.754Z,0.00
2019-03-22T04:10:29.682Z,0.00
2019-03-22T04:11:29.760Z,0.00
2019-03-22T04:12:29.654Z,0.00
2019-03-22T04:13:29.706Z,0.00
2019-03-22T04:14:29.645Z,0.00
2019-03-22T04:15:29.685Z,0.00
2019-03-22T04:16:29.617Z,0.00
2019-03-22T04:17:29.699Z,0.00
2019-03-22T04:18:29.604Z,0.00
2019-03-22T04:19:38.542Z,0.00
2019-03-22T04:20:29.573Z,0.00
2019-03-22T04:21:29.624Z,0.00
2019-03-22T04:22:29.545Z,0.00
2019-03-22T04:23:30.600Z,0.00
2019-03-22T04:24:29.526Z,0.00
2019-03-22T04:25:29.561Z,0.00
2019-03-22T04:26:29.505Z,0.00
2019-03-22T04:27:31.510Z,0.00
2019-03-22T04:28:29.481Z,0.00
2019-03-22T04:29:29.509Z,0.00
2019-03-22T04:30:29.465Z,0.00
2019-03-22T04:31:29.491Z,0.00
2019-03-22T04:32:29.442Z,0.00
2019-03-22T04:33:29.505Z,0.00
2019-03-22T04:34:29.492Z,0.00
2019-03-22T04:35:29.516Z,0.00
2019-03-22T04:36:29.397Z,0.00
2019-03-22T04:37:29.428Z,0.00
2019-03-22T04:38:29.370Z,0.00
2019-03-22T04:39:29.472Z,0.00
2019-03-22T04:40:29.373Z,0.00
2019-03-22T04:41:29.351Z,0.00
2019-03-22T04:42:29.325Z,0.00
2019-03-22T04:43:29.426Z,0.00
2019-03-22T04:44:29.318Z,0.00
2019-03-22T04:45:29.381Z,0.00
2019-03-22T04:46:29.283Z,0.00
2019-03-22T04:47:29.290Z,0.00
2019-03-22T04:48:29.261Z,0.00
2019-03-22T04:49:29.335Z,0.00
2019-03-22T04:50:29.244Z,0.00
2019-03-22T04:51:29.320Z,0.00
2019-03-22T04:52:29.215Z,0.00
2019-03-22T04:53:29.230Z,0.00
2019-03-22T04:54:29.210Z,0.00
2019-03-22T04:55:29.287Z,0.00
2019-03-22T04:56:29.175Z,4.00
2019-03-22T04:57:29.260Z,4.00
2019-03-22T04:58:29.154Z,4.00
2019-03-22T04:59:29.205Z,0.00
2019-03-22T05:00:29.130Z,4.00
2019-03-22T05:01:29.183Z,4.00
2019-03-22T05:02:29.115Z,4.00
2019-03-22T05:03:29.198Z,4.00
2019-03-22T05:04:29.100Z,4.00
2019-03-22T05:05:38.121Z,8.00
2019-03-22T05:06:29.065Z,8.00
2019-03-22T05:07:59.041Z,12.00
2019-03-22T05:08:29.040Z,12.00
2019-03-22T05:09:29.044Z,16.00
2019-03-22T05:10:29.040Z,16.00
2019-03-22T05:11:29.007Z,24.00
2019-03-22T05:12:29.054Z,24.00
2019-03-22T05:13:28.986Z,28.00
2019-03-22T05:14:30.023Z,32.00
2019-03-22T05:15:28.963Z,36.00
2019-03-22T05:16:28.979Z,40.00
2019-03-22T05:17:28.942Z,44.00
2019-03-22T05:18:28.993Z,52.00
2019-03-22T05:19:28.935Z,56.00
2019-03-22T05:20:29.006Z,64.00
2019-03-22T05:21:28.900Z,68.00
2019-03-22T05:22:28.916Z,76.00
2019-03-22T05:23:28.876Z,88.00
2019-03-22T05:24:28.964Z,96.00
2019-03-22T05:25:28.858Z,100.00
2019-03-22T05:26:28.944Z,108.00
2019-03-22T05:27:28.833Z,116.00
2019-03-22T05:28:28.856Z,128.00
2019-03-22T05:29:30.861Z,136.00
2019-03-22T05:30:28.870Z,144.00
2019-03-22T05:31:28.794Z,156.00
2019-03-22T05:32:28.883Z,168.00
2019-03-22T05:33:28.766Z,176.00
2019-03-22T05:34:28.828Z,188.00
2019-03-22T05:35:28.744Z,200.00
2019-03-22T05:36:28.808Z,208.00
2019-03-22T05:37:28.722Z,224.00
2019-03-22T05:38:28.821Z,240.00
2019-03-22T05:39:28.754Z,256.00
2019-03-22T05:40:28.732Z,276.00
2019-03-22T05:41:28.679Z,292.00
2019-03-22T05:42:28.747Z,312.00
2019-03-22T05:43:28.663Z,332.00
2019-03-22T05:44:28.692Z,356.00
2019-03-22T05:45:28.634Z,380.00
2019-03-22T05:46:28.673Z,400.00
2019-03-22T05:47:28.617Z,416.00
2019-03-22T05:48:28.696Z,436.00
2019-03-22T05:49:28.591Z,460.00
2019-03-22T05:50:32.137Z,492.00
2019-03-22T05:51:28.572Z,516.00
2019-03-22T05:52:52.711Z,544.00
2019-03-22T05:53:28.550Z,568.00
2019-03-22T05:54:50.575Z,596.00
2019-03-22T05:55:28.536Z,624.00
2019-03-22T05:56:28.535Z,644.00
2019-03-22T05:57:28.503Z,660.00
2019-03-22T05:58:28.553Z,676.00
2019-03-22T05:59:28.480Z,692.00
2019-03-22T06:00:29.517Z,708.00
2019-03-22T06:01:28.476Z,724.00
2019-03-22T06:02:28.479Z,756.00
2019-03-22T06:03:28.441Z,780.00
2019-03-22T06:04:28.493Z,784.00
2019-03-22T06:05:28.434Z,792.00
2019-03-22T06:06:28.505Z,792.00
2019-03-22T06:07:28.399Z,804.00
2019-03-22T06:08:28.419Z,816.00
2019-03-22T06:09:28.437Z,828.00
2019-03-22T06:10:28.460Z,844.00
2019-03-22T06:11:28.360Z,856.00
2019-03-22T06:12:28.447Z,856.00
2019-03-22T06:13:28.329Z,868.00
2019-03-22T06:14:28.353Z,876.00
2019-03-22T06:15:28.323Z,900.00
2019-03-22T06:16:28.366Z,932.00
2019-03-22T06:17:28.293Z,960.00
2019-03-22T06:18:28.380Z,988.00
2019-03-22T06:19:28.270Z,1008.00
2019-03-22T06:20:28.325Z,1048.00
2019-03-22T06:21:28.242Z,1116.00
2019-03-22T06:22:28.306Z,1192.00
2019-03-22T06:23:28.220Z,1236.00
2019-03-22T06:24:28.327Z,1288.00
2019-03-22T06:25:28.237Z,1412.00
2019-03-22T06:26:28.229Z,1592.00
2019-03-22T06:27:28.177Z,1764.00
2019-03-22T06:28:28.243Z,1956.00
2019-03-22T06:29:28.159Z,2128.00
2019-03-22T06:30:28.219Z,2260.00
2019-03-22T06:31:28.135Z,2316.00
2019-03-22T06:32:28.173Z,2352.00
2019-03-22T06:33:28.114Z,2328.00
2019-03-22T06:34:28.188Z,2436.00
2019-03-22T06:35:28.105Z,2480.00
2019-03-22T06:36:28.093Z,2624.00
2019-03-22T06:37:28.072Z,2636.00
2019-03-22T06:39:28.043Z,2672.00
2019-03-22T06:40:29.075Z,2740.00
2019-03-22T06:41:28.024Z,2728.00
2019-03-22T06:42:28.038Z,2796.00
2019-03-22T06:43:28.003Z,2868.00
2019-03-22T06:44:28.049Z,3012.00
2019-03-22T06:45:28.001Z,3064.00
2019-03-22T06:46:28.984Z,3112.00
2019-03-22T06:47:27.958Z,3096.00
2019-03-22T06:48:27.971Z,3220.00
2019-03-22T06:49:27.936Z,3256.00
2019-03-22T06:50:28.017Z,3364.00
2019-03-22T06:51:27.914Z,3368.00
2019-03-22T06:52:28.000Z,3484.00
2019-03-22T06:53:27.891Z,3552.00
2019-03-22T06:54:31.709Z,3736.00
2019-03-22T06:55:27.896Z,3764.00
2019-03-22T06:56:27.924Z,3968.00
2019-03-22T06:57:27.849Z,4112.00
2019-03-22T06:58:27.938Z,4192.00
2019-03-22T06:59:27.829Z,4300.00
2019-03-22T07:00:27.878Z,4548.00
2019-03-22T07:01:27.806Z,4492.00
2019-03-22T07:02:27.865Z,4724.00
2019-03-22T07:03:27.784Z,4500.00
2019-03-22T07:04:27.876Z,4724.00
2019-03-22T07:05:27.776Z,4732.00
2019-03-22T07:06:27.787Z,4620.00
2019-03-22T07:07:27.741Z,4668.00
2019-03-22T07:08:27.803Z,4852.00
2019-03-22T07:09:27.720Z,5044.00
2019-03-22T07:10:27.746Z,4992.00
2019-03-22T07:11:27.695Z,5012.00
2019-03-22T07:12:27.728Z,5296.00
2019-03-22T07:13:27.670Z,5396.00
2019-03-22T07:14:27.744Z,5352.00
2019-03-22T07:15:27.675Z,5396.00
2019-03-22T07:16:27.651Z,5336.00
2019-03-22T07:17:27.626Z,5384.00
2019-03-22T07:18:27.665Z,5496.00
2019-03-22T07:19:27.622Z,5444.00
2019-03-22T07:20:27.680Z,4952.00
2019-03-22T07:21:27.601Z,4624.00
2019-03-22T07:22:34.553Z,4616.00
2019-03-22T07:23:27.561Z,5460.00
2019-03-22T07:24:28.633Z,5264.00
2019-03-22T07:25:27.543Z,5712.00
2019-03-22T07:26:30.154Z,5784.00
2019-03-22T07:27:27.518Z,5900.00
2019-03-22T07:28:27.528Z,5908.00
2019-03-22T07:29:27.493Z,5952.00
2019-03-22T07:30:27.541Z,6052.00
2019-03-22T07:31:27.485Z,6132.00
2019-03-22T07:32:27.559Z,6448.00
2019-03-22T07:33:27.452Z,6860.00
2019-03-22T07:34:27.467Z,6640.00
2019-03-22T07:35:27.428Z,6800.00
2019-03-22T07:36:27.573Z,6960.00
2019-03-22T07:37:27.406Z,6984.00
2019-03-22T07:38:27.495Z,7372.00
2019-03-22T07:39:27.382Z,7720.00
2019-03-22T07:40:27.406Z,7816.00
2019-03-22T07:41:27.378Z,8252.00
2019-03-22T07:42:27.419Z,7884.00
2019-03-22T07:43:27.344Z,7988.00
2019-03-22T07:44:27.492Z,8328.00
2019-03-22T07:45:27.320Z,8248.00
2019-03-22T07:46:27.379Z,7800.00
2019-03-22T07:47:27.296Z,7812.00
2019-03-22T07:48:27.360Z,7876.00
2019-03-22T07:49:27.278Z,8072.00
2019-03-22T07:50:27.372Z,8236.00
2019-03-22T07:51:27.270Z,8604.00
2019-03-22T07:52:27.284Z,8628.00
2019-03-22T07:53:27.243Z,8944.00
2019-03-22T07:54:27.296Z,8272.00
2019-03-22T07:55:27.221Z,7664.00
2019-03-22T07:56:27.245Z,8048.00
2019-03-22T07:57:27.187Z,9060.00
2019-03-22T07:58:27.228Z,8892.00
2019-03-22T07:59:27.164Z,8772.00
2019-03-22T08:00:31.161Z,8520.00
2019-03-22T08:01:27.156Z,8936.00
2019-03-22T08:02:27.147Z,9484.00
2019-03-22T08:03:27.124Z,9428.00
2019-03-22T08:04:27.161Z,9296.00
2019-03-22T08:05:27.097Z,10084.00
2019-03-22T08:06:27.207Z,10696.00
2019-03-22T08:07:27.076Z,10964.00
2019-03-22T08:08:34.049Z,11120.00
2019-03-22T08:09:27.094Z,10536.00
2019-03-22T08:10:27.100Z,9760.00
2019-03-22T08:11:27.050Z,9320.00
2019-03-22T08:12:28.055Z,9796.00
2019-03-22T08:13:27.006Z,10420.00
2019-03-22T08:14:27.025Z,10948.00
2019-03-22T08:15:26.985Z,10312.00
2019-03-22T08:16:27.073Z,8380.00
2019-03-22T08:17:26.968Z,9032.00
2019-03-22T08:18:27.071Z,9548.00
2019-03-22T08:19:26.962Z,10288.00
2019-03-22T08:20:26.963Z,10792.00
2019-03-22T08:21:26.964Z,11420.00
2019-03-22T08:22:26.979Z,12036.00
2019-03-22T08:23:26.901Z,11084.00
2019-03-22T08:24:26.990Z,10444.00
2019-03-22T08:25:26.871Z,10444.00
2019-03-22T08:26:26.934Z,10832.00
2019-03-22T08:27:26.855Z,11204.00
2019-03-22T08:28:26.916Z,11736.00
2019-03-22T08:29:26.864Z,11700.00
2019-03-22T08:30:26.842Z,11436.00
2019-03-22T08:31:26.817Z,11512.00
2019-03-22T08:32:26.875Z,11588.00
2019-03-22T08:33:26.783Z,10744.00
2019-03-22T08:34:26.860Z,11592.00
2019-03-22T08:35:26.769Z,12208.00
2019-03-22T08:36:26.796Z,11912.00
2019-03-22T08:37:26.739Z,11408.00
2019-03-22T08:38:26.779Z,11912.00
2019-03-22T08:39:26.712Z,12092.00
2019-03-22T08:40:26.793Z,10904.00
2019-03-22T08:41:26.717Z,11804.00
2019-03-22T08:42:26.708Z,11172.00
2019-03-22T08:43:26.668Z,11468.00
2019-03-22T08:44:26.739Z,12092.00
2019-03-22T08:45:26.674Z,12868.00
2019-03-22T08:46:26.763Z,12136.00
2019-03-22T08:47:33.969Z,12024.00
2019-03-22T08:48:27.611Z,13248.00
2019-03-22T08:49:26.899Z,14652.00
2019-03-22T08:50:26.589Z,14160.00
2019-03-22T08:51:29.679Z,13288.00
2019-03-22T08:52:26.614Z,13140.00
2019-03-22T08:53:33.577Z,14220.00
2019-03-22T08:54:26.587Z,16352.00
2019-03-22T08:55:26.630Z,15776.00
2019-03-22T08:56:26.552Z,17024.00
2019-03-22T08:57:26.633Z,18304.00
2019-03-22T08:58:26.500Z,17600.00
2019-03-22T08:59:26.544Z,20288.00
2019-03-22T09:00:38.666Z,16256.00
2019-03-22T09:01:27.473Z,14284.00
2019-03-22T09:02:26.569Z,12836.00
2019-03-22T09:03:26.477Z,13372.00
2019-03-22T09:04:26.445Z,14424.00
2019-03-22T09:05:26.423Z,16704.00
2019-03-22T09:06:26.471Z,16960.00
2019-03-22T09:07:26.418Z,16096.00
2019-03-22T09:08:26.474Z,15560.00
2019-03-22T09:09:26.379Z,16128.00
2019-03-22T09:10:26.383Z,16480.00
2019-03-22T09:11:26.421Z,18016.00
2019-03-22T09:12:27.004Z,17536.00
2019-03-22T09:13:26.360Z,16512.00
2019-03-22T09:14:26.412Z,16928.00
2019-03-22T09:15:26.319Z,17856.00
2019-03-22T09:16:26.330Z,19968.00
2019-03-22T09:17:26.311Z,21632.00
2019-03-22T09:18:26.369Z,22560.00
2019-03-22T09:19:26.292Z,24256.00
2019-03-22T09:20:26.350Z,25120.00
2019-03-22T09:21:26.279Z,25056.00
2019-03-22T09:22:26.308Z,27936.00
2019-03-22T09:23:26.237Z,25984.00
2019-03-22T09:24:38.571Z,24352.00
2019-03-22T09:25:27.199Z,28384.00
2019-03-22T09:26:26.320Z,25728.00
2019-03-22T09:27:26.194Z,22944.00
2019-03-22T09:28:26.218Z,21632.00
2019-03-22T09:29:26.163Z,21408.00
2019-03-22T09:30:26.215Z,24288.00
2019-03-22T09:31:26.140Z,27328.00
2019-03-22T09:32:26.167Z,28352.00
2019-03-22T09:33:26.112Z,32448.00
2019-03-22T09:34:33.515Z,50752.00
2019-03-22T09:35:27.091Z,32448.00
2019-03-22T09:36:26.171Z,24480.00
2019-03-22T09:37:26.141Z,23200.00
2019-03-22T09:38:28.494Z,27520.00
2019-03-22T09:39:26.043Z,50496.00
2019-03-22T09:40:33.166Z,37696.00
2019-03-22T09:41:26.037Z,39104.00
2019-03-22T09:42:27.044Z,29824.00
2019-03-22T09:43:26.004Z,31712.00
2019-03-22T09:44:28.196Z,41632.00
2019-03-22T09:45:26.029Z,44960.00
2019-03-22T09:46:26.050Z,48800.00
2019-03-22T09:47:25.980Z,51648.00
2019-03-22T09:48:26.041Z,55744.00
2019-03-22T09:49:25.975Z,56480.00
2019-03-22T09:50:25.951Z,56736.00
2019-03-22T09:51:25.909Z,56960.00
2019-03-22T09:52:26.042Z,55648.00
2019-03-22T09:53:25.894Z,56352.00
2019-03-22T09:54:25.974Z,56896.00
2019-03-22T09:55:25.926Z,57408.00
2019-03-22T09:56:25.908Z,55808.00
2019-03-22T09:57:25.869Z,56096.00
2019-03-22T09:58:25.901Z,56608.00
2019-03-22T09:59:25.836Z,57376.00
2019-03-22T10:00:25.910Z,57760.00
2019-03-22T10:01:25.888Z,59488.00
2019-03-22T10:02:25.851Z,58560.00
2019-03-22T10:03:25.838Z,57824.00
2019-03-22T10:04:25.863Z,57408.00
2019-03-22T10:05:25.757Z,58400.00
2019-03-22T10:06:25.862Z,61280.00
2019-03-22T10:07:25.748Z,59808.00
2019-03-22T10:08:25.788Z,62752.00
2019-03-22T10:09:25.711Z,64160.00
2019-03-22T10:10:25.854Z,64288.00
2019-03-22T10:11:25.696Z,63488.00
2019-03-22T10:12:25.713Z,62976.00
2019-03-22T10:13:25.703Z,61600.00
2019-03-22T10:14:25.751Z,63104.00
2019-03-22T10:15:25.665Z,64352.00
2019-03-22T10:16:25.718Z,64896.00
2019-03-22T10:17:25.639Z,65344.00
2019-03-22T10:18:25.730Z,65920.00
2019-03-22T10:19:25.602Z,65696.00
2019-03-22T10:20:25.706Z,65856.00
2019-03-22T10:21:25.580Z,67488.00
2019-03-22T10:22:26.634Z,68064.00
2019-03-22T10:23:25.573Z,67744.00
2019-03-22T10:24:25.575Z,68544.00
2019-03-22T10:25:25.555Z,68384.00
2019-03-22T10:26:42.065Z,68672.00
2019-03-22T10:27:25.556Z,69824.00
2019-03-22T10:28:26.552Z,70336.00
2019-03-22T10:29:25.599Z,68896.00
2019-03-22T10:30:25.619Z,69920.00
2019-03-22T10:31:36.463Z,67936.00
2019-03-22T10:32:26.521Z,69184.00
2019-03-22T10:33:25.549Z,69600.00
2019-03-22T10:34:25.443Z,70944.00
2019-03-22T10:35:26.615Z,72064.00
2019-03-22T10:36:25.466Z,72128.00
2019-03-22T10:37:25.454Z,71488.00
2019-03-22T10:38:31.972Z,70752.00
2019-03-22T10:39:26.489Z,69120.00
2019-03-22T10:40:25.373Z,69760.00
2019-03-22T10:41:25.479Z,70368.00
2019-03-22T10:42:25.377Z,71168.00
2019-03-22T10:43:25.463Z,75840.00
2019-03-22T10:44:25.346Z,78560.00
2019-03-22T10:45:25.405Z,77728.00
2019-03-22T10:46:25.336Z,78528.00
2019-03-22T10:47:25.416Z,77472.00
2019-03-22T10:48:25.306Z,79104.00
2019-03-22T10:49:25.330Z,78112.00
2019-03-22T10:50:25.264Z,78624.00
2019-03-22T10:51:25.419Z,78880.00
2019-03-22T10:52:25.282Z,82432.00
2019-03-22T10:53:25.287Z,82560.00
2019-03-22T10:54:25.317Z,82688.00
2019-03-22T10:55:30.194Z,83968.00
2019-03-22T10:56:26.204Z,84096.00
2019-03-22T10:57:25.287Z,83488.00
2019-03-22T10:58:25.195Z,85632.00
2019-03-22T10:59:25.193Z,85120.00
2019-03-22T11:00:25.159Z,83552.00
2019-03-22T11:01:25.205Z,79072.00
2019-03-22T11:02:25.136Z,75776.00
2019-03-22T11:03:25.251Z,70528.00
2019-03-22T11:04:25.125Z,72032.00
2019-03-22T11:05:25.132Z,70624.00
2019-03-22T11:06:26.412Z,75776.00
2019-03-22T11:07:53.101Z,78880.00
2019-03-22T11:08:25.089Z,84960.00
2019-03-22T11:09:25.063Z,79872.00
2019-03-22T11:10:26.086Z,71552.00
2019-03-22T11:11:25.043Z,71936.00
2019-03-22T11:12:25.078Z,81152.00
2019-03-22T11:13:25.035Z,88736.00
2019-03-22T11:14:25.092Z,87328.00
2019-03-22T11:15:24.999Z,87776.00
2019-03-22T11:16:26.026Z,84928.00
2019-03-22T11:17:24.978Z,84512.00
2019-03-22T11:18:25.049Z,84672.00
2019-03-22T11:19:24.958Z,84864.00
2019-03-22T11:20:25.035Z,86752.00
2019-03-22T11:21:24.939Z,85632.00
2019-03-22T11:22:25.055Z,85504.00
2019-03-22T11:23:24.934Z,84128.00
2019-03-22T11:24:24.967Z,84960.00
2019-03-22T11:25:24.894Z,86304.00
2019-03-22T11:26:24.970Z,84992.00
2019-03-22T11:27:24.878Z,85152.00
2019-03-22T11:28:24.891Z,85792.00
2019-03-22T11:29:24.862Z,85280.00
2019-03-22T11:30:24.907Z,85088.00
2019-03-22T11:31:28.593Z,86720.00
2019-03-22T11:32:24.923Z,86464.00
2019-03-22T11:33:24.830Z,85664.00
2019-03-22T11:34:24.822Z,85920.00
2019-03-22T11:35:24.792Z,87232.00
2019-03-22T11:36:24.789Z,88480.00
2019-03-22T11:37:24.771Z,87712.00
2019-03-22T11:38:24.787Z,84448.00
2019-03-22T11:39:24.751Z,83200.00
2019-03-22T11:40:24.744Z,84224.00
2019-03-22T11:41:24.724Z,86272.00
2019-03-22T11:42:24.717Z,84928.00
2019-03-22T11:43:25.651Z,85856.00
2019-03-22T11:44:24.708Z,86560.00
2019-03-22T11:45:24.785Z,88960.00
2019-03-22T11:46:24.719Z,85952.00
2019-03-22T11:47:24.666Z,86304.00
2019-03-22T11:48:24.666Z,87904.00
2019-03-22T11:49:24.653Z,88000.00
2019-03-22T11:50:24.640Z,90400.00
2019-03-22T11:51:24.628Z,88128.00
2019-03-22T11:52:24.637Z,86432.00
2019-03-22T11:53:24.611Z,89568.00
2019-03-22T11:54:24.619Z,90944.00
2019-03-22T11:55:24.582Z,88608.00
2019-03-22T11:56:24.575Z,88864.00
2019-03-22T11:57:24.563Z,90400.00
2019-03-22T11:58:24.574Z,84576.00
2019-03-22T11:59:24.544Z,83520.00
2019-03-22T12:00:24.530Z,90208.00
2019-03-22T12:01:24.537Z,93056.00
2019-03-22T12:02:24.508Z,82752.00
2019-03-22T12:03:24.513Z,92096.00
2019-03-22T12:04:24.505Z,97632.00
2019-03-22T12:05:24.479Z,85568.00
2019-03-22T12:06:24.474Z,91712.00
2019-03-22T12:07:24.453Z,89952.00
2019-03-22T12:08:25.570Z,86816.00
2019-03-22T12:09:24.435Z,90560.00
2019-03-22T12:10:24.437Z,88768.00
2019-03-22T12:11:24.410Z,91040.00
2019-03-22T12:12:24.402Z,91392.00
2019-03-22T12:13:24.418Z,94400.00
2019-03-22T12:14:24.415Z,91424.00
2019-03-22T12:15:24.371Z,92128.00
2019-03-22T12:16:24.362Z,95232.00
2019-03-22T12:17:24.344Z,93472.00
2019-03-22T12:18:24.343Z,91904.00
2019-03-22T12:19:24.343Z,91264.00
2019-03-22T12:20:24.326Z,92480.00
2019-03-22T12:21:24.343Z,88160.00
2019-03-22T12:22:24.300Z,93216.00
2019-03-22T12:23:24.296Z,103104.00
2019-03-22T12:24:24.333Z,89408.00
2019-03-22T12:25:24.262Z,83840.00
2019-03-22T12:26:24.292Z,81408.00
2019-03-22T12:27:24.243Z,85728.00
2019-03-22T12:28:24.238Z,94208.00
2019-03-22T12:29:24.235Z,101856.00